Time;durP1;ratioP1;P1;durP2;ratioP2;P2;SDS_P1;SDS_P2;PMS_P1;PMS_P2;Temp;Humidity;BMP_temperature;BMP_pressure;BME280_temperature;BME280_humidity;BME280_pressure;Samples;Min_cycle;Max_cycle;Signal;HPM_P1;HPM_P2
2023/05/12 00:01:23;;;;;;;3.40;2.70;;;17.00;73.50;;;;;;5015073;28;20471;-79
2023/05/12 00:03:52;;;;;;;4.55;3.25;;;17.00;73.30;;;;;;4998544;28;20029;-79
2023/05/12 00:06:18;;;;;;;3.97;2.78;;;17.00;73.30;;;;;;5015989;28;20073;-79
2023/05/12 00:08:44;;;;;;;4.63;3.25;;;17.00;73.30;;;;;;5014896;28;20037;-79
2023/05/12 00:11:10;;;;;;;4.25;2.95;;;17.00;73.40;;;;;;5016212;28;20026;-79
2023/05/12 00:13:36;;;;;;;3.95;2.95;;;16.90;73.30;;;;;;4982427;28;20022;-79
2023/05/12 00:16:02;;;;;;;4.13;3.00;;;16.90;73.40;;;;;;5014622;28;20034;-79
2023/05/12 00:18:28;;;;;;;4.63;3.30;;;16.90;73.40;;;;;;5031154;28;20364;-79
2023/05/12 00:20:54;;;;;;;4.65;3.30;;;16.90;73.30;;;;;;5014582;28;20034;-79
2023/05/12 00:23:21;;;;;;;4.15;3.03;;;16.90;73.40;;;;;;5031391;28;20026;-79
2023/05/12 00:25:47;;;;;;;4.90;3.40;;;16.90;73.40;;;;;;5014856;28;20125;-79
2023/05/12 00:28:13;;;;;;;3.22;2.47;;;16.80;73.40;;;;;;5014358;28;20041;-79
2023/05/12 00:30:41;;;;;;;4.25;3.05;;;16.80;73.40;;;;;;5015755;28;20045;-79
2023/05/12 00:33:07;;;;;;;3.55;2.70;;;16.80;73.40;;;;;;5047554;28;20037;-79
2023/05/12 00:35:33;;;;;;;3.85;2.80;;;16.80;73.40;;;;;;5014505;28;20030;-79
2023/05/12 00:37:58;;;;;;;3.92;2.90;;;16.80;73.40;;;;;;5014799;28;20061;-79
2023/05/12 00:40:24;;;;;;;4.15;3.00;;;16.80;73.40;;;;;;4997644;28;20046;-80
2023/05/12 00:42:50;;;;;;;3.85;3.15;;;16.70;73.30;;;;;;5014513;28;20029;-80
2023/05/12 00:45:16;;;;;;;3.78;2.88;;;16.70;73.40;;;;;;5014547;28;20046;-80
2023/05/12 00:47:42;;;;;;;4.10;2.72;;;16.70;73.40;;;;;;5047277;28;20475;-79
2023/05/12 00:50:08;;;;;;;3.65;2.60;;;16.70;73.40;;;;;;4997802;28;20619;-79
2023/05/12 00:52:34;;;;;;;4.20;3.13;;;16.70;73.40;;;;;;4997491;28;20026;-79
2023/05/12 00:55:01;;;;;;;3.60;2.78;;;16.70;73.50;;;;;;5014444;28;20498;-79
2023/05/12 00:57:27;;;;;;;4.40;3.10;;;16.60;73.50;;;;;;5030385;28;20072;-79
2023/05/12 00:59:54;;;;;;;4.03;2.95;;;16.60;73.50;;;;;;5014241;28;20038;-79
2023/05/12 01:02:21;;;;;;;4.35;3.10;;;16.60;73.50;;;;;;5031194;28;20037;-79
2023/05/12 01:04:48;;;;;;;3.72;2.75;;;16.60;73.50;;;;;;5030132;28;20169;-79
2023/05/12 01:07:25;;;;;;;3.83;2.80;;;16.60;73.50;;;;;;5030555;28;20072;-79
2023/05/12 01:09:58;;;;;;;3.25;2.60;;;16.60;73.60;;;;;;4998184;28;20054;-80
2023/05/12 01:12:26;;;;;;;4.15;2.65;;;16.50;73.50;;;;;;5014863;28;20324;-80
2023/05/12 01:14:53;;;;;;;4.05;2.92;;;16.50;73.50;;;;;;4997252;28;20037;-80
2023/05/12 01:17:34;;;;;;;3.35;2.50;;;16.50;73.60;;;;;;5014307;28;20040;-80
2023/05/12 01:20:03;;;;;;;3.45;2.60;;;16.50;73.60;;;;;;5030101;28;20025;-79
2023/05/12 01:22:30;;;;;;;3.20;2.42;;;16.50;73.60;;;;;;5013419;28;20064;-80
2023/05/12 01:25:06;;;;;;;3.78;2.67;;;16.50;73.60;;;;;;5013937;28;20033;-79
2023/05/12 01:27:33;;;;;;;3.22;2.33;;;16.50;73.60;;;;;;5030273;28;20116;-80
2023/05/12 01:30:03;;;;;;;3.15;2.30;;;16.40;73.60;;;;;;5013467;28;20108;-80
2023/05/12 01:32:33;;;;;;;3.65;2.60;;;16.40;73.70;;;;;;5030301;28;20030;-80
2023/05/12 01:34:59;;;;;;;2.85;2.38;;;16.40;73.70;;;;;;4996979;28;20121;-80
2023/05/12 01:37:26;;;;;;;3.42;2.35;;;16.40;73.80;;;;;;5013474;28;20057;-80
2023/05/12 01:39:53;;;;;;;3.03;2.28;;;16.30;73.70;;;;;;5013227;28;20046;-80
2023/05/12 01:42:20;;;;;;;2.80;2.20;;;16.30;73.70;;;;;;5013087;28;20096;-80
2023/05/12 01:44:46;;;;;;;2.92;2.05;;;16.30;73.80;;;;;;4996980;28;20034;-81
2023/05/12 01:47:14;;;;;;;2.35;1.80;;;16.30;73.80;;;;;;4996974;28;20110;-80
2023/05/12 01:49:41;;;;;;;2.30;1.90;;;16.30;73.80;;;;;;5013895;28;20037;-80
2023/05/12 01:52:12;;;;;;;2.95;2.05;;;16.20;73.80;;;;;;4982980;28;20451;-80
2023/05/12 01:54:38;;;;;;;2.88;2.15;;;16.30;73.90;;;;;;5013371;28;20044;-80
2023/05/12 01:57:04;;;;;;;2.65;1.83;;;16.20;73.90;;;;;;5012949;28;20481;-79
2023/05/12 01:59:30;;;;;;;2.38;1.90;;;16.20;73.90;;;;;;5012976;28;20038;-80
2023/05/12 02:01:56;;;;;;;2.63;1.85;;;16.20;73.90;;;;;;4981518;28;20026;-80
2023/05/12 02:04:28;;;;;;;2.10;1.77;;;16.20;74.00;;;;;;4998514;28;20180;-80
2023/05/12 02:06:55;;;;;;;2.42;1.90;;;16.20;73.90;;;;;;4997272;28;20092;-80
2023/05/12 02:09:21;;;;;;;2.28;1.90;;;16.20;73.90;;;;;;4980472;28;20116;-80
2023/05/12 02:11:48;;;;;;;2.58;1.83;;;16.20;74.00;;;;;;5013349;28;20038;-79
2023/05/12 02:14:14;;;;;;;2.67;2.00;;;16.20;74.10;;;;;;5012985;28;20379;-79
2023/05/12 02:16:40;;;;;;;1.75;1.63;;;16.10;74.00;;;;;;4981138;28;20069;-80
2023/05/12 02:19:06;;;;;;;2.10;1.70;;;16.10;74.10;;;;;;5012743;28;20038;-80
2023/05/12 02:21:31;;;;;;;2.35;1.83;;;16.10;74.00;;;;;;4980051;28;20034;-80
2023/05/12 02:23:58;;;;;;;2.60;1.83;;;16.10;74.10;;;;;;4997180;28;20432;-80
2023/05/12 02:26:24;;;;;;;1.80;1.63;;;16.10;74.10;;;;;;5012632;28;20041;-80
2023/05/12 02:28:50;;;;;;;2.00;1.80;;;16.10;74.10;;;;;;4996588;28;20084;-79
2023/05/12 02:31:16;;;;;;;2.97;2.00;;;16.10;74.10;;;;;;5045852;28;20430;-80
2023/05/12 02:33:42;;;;;;;2.40;1.80;;;16.10;74.10;;;;;;5045553;28;20079;-80
2023/05/12 02:36:08;;;;;;;2.97;2.00;;;16.10;74.10;;;;;;4996206;28;20076;-80
2023/05/12 02:38:33;;;;;;;2.90;2.13;;;16.10;74.20;;;;;;5013308;28;20057;-79
2023/05/12 02:40:59;;;;;;;3.08;2.20;;;16.00;74.20;;;;;;5012613;28;20042;-80
2023/05/12 02:43:26;;;;;;;3.42;2.40;;;16.00;74.20;;;;;;4996333;28;20072;-79
2023/05/12 02:45:53;;;;;;;2.92;2.17;;;16.00;74.20;;;;;;5015103;28;20038;-79
2023/05/12 02:48:19;;;;;;;3.90;2.67;;;16.00;74.20;;;;;;5000976;28;20034;-80
2023/05/12 02:50:45;;;;;;;5.00;3.00;;;16.00;74.20;;;;;;5000219;28;20030;-79
2023/05/12 02:53:10;;;;;;;4.90;3.25;;;16.00;74.30;;;;;;5016366;28;20490;-80
2023/05/12 02:55:36;;;;;;;3.60;2.50;;;16.00;74.30;;;;;;5016377;28;20038;-80
2023/05/12 02:58:02;;;;;;;4.20;2.67;;;16.00;74.30;;;;;;5016099;28;20387;-79
2023/05/12 03:00:28;;;;;;;3.60;2.60;;;15.90;74.30;;;;;;5000053;28;20029;-80
2023/05/12 03:02:53;;;;;;;4.25;2.92;;;15.90;74.30;;;;;;5016284;28;20105;-79
2023/05/12 03:05:19;;;;;;;4.15;2.80;;;15.90;74.30;;;;;;5049252;28;20026;-80
2023/05/12 03:07:48;;;;;;;4.22;3.03;;;15.90;74.30;;;;;;5049178;28;20061;-79
2023/05/12 03:10:14;;;;;;;5.28;3.60;;;15.90;74.40;;;;;;5032714;28;20410;-79
2023/05/12 03:12:40;;;;;;;5.22;3.30;;;15.90;74.40;;;;;;5000074;28;20076;-80
2023/05/12 03:15:07;;;;;;;5.57;3.42;;;15.90;74.50;;;;;;4999947;28;20088;-79
2023/05/12 03:17:34;;;;;;;5.05;3.28;;;15.90;74.50;;;;;;5015950;28;20125;-80
2023/05/12 03:20:00;;;;;;;5.43;3.78;;;15.80;74.50;;;;;;5049091;28;20431;-79
2023/05/12 03:22:26;;;;;;;4.90;3.53;;;15.80;74.50;;;;;;4999531;28;20064;-79
2023/05/12 03:24:52;;;;;;;5.07;3.40;;;15.80;74.50;;;;;;5016692;28;20038;-79
2023/05/12 03:27:17;;;;;;;5.82;3.80;;;15.80;74.50;;;;;;4999258;28;20034;-79
2023/05/12 03:29:43;;;;;;;5.85;3.92;;;15.80;74.50;;;;;;5016280;28;20084;-79
2023/05/12 03:32:09;;;;;;;5.53;3.92;;;15.80;74.60;;;;;;5000247;28;20049;-79
2023/05/12 03:34:36;;;;;;;5.45;3.65;;;15.80;74.60;;;;;;4999383;28;20475;-79
2023/05/12 03:37:01;;;;;;;5.88;4.03;;;15.80;74.60;;;;;;4982886;28;20030;-79
2023/05/12 03:39:27;;;;;;;5.82;4.28;;;15.80;74.70;;;;;;5015789;28;20049;-79
2023/05/12 03:41:53;;;;;;;6.05;4.22;;;15.80;74.70;;;;;;4998999;28;20521;-79
2023/05/12 03:44:19;;;;;;;5.75;4.20;;;15.80;74.70;;;;;;4999435;28;20046;-79
2023/05/12 03:46:45;;;;;;;5.88;4.18;;;15.80;74.70;;;;;;5016836;28;20083;-79
2023/05/12 03:49:11;;;;;;;5.90;4.43;;;15.80;74.70;;;;;;4999268;28;20033;-79
2023/05/12 03:51:37;;;;;;;6.00;4.40;;;15.80;74.70;;;;;;5015540;28;20517;-79
2023/05/12 03:54:03;;;;;;;6.20;4.35;;;15.80;74.70;;;;;;5048610;28;20025;-79
2023/05/12 03:56:29;;;;;;;6.65;4.72;;;15.70;74.70;;;;;;5016292;28;20065;-79
2023/05/12 03:58:56;;;;;;;6.82;4.43;;;15.70;74.70;;;;;;4999050;28;20130;-79
2023/05/12 04:01:21;;;;;;;6.32;4.53;;;15.70;74.80;;;;;;5048113;28;20045;-79
2023/05/12 04:03:47;;;;;;;6.03;4.40;;;15.70;74.80;;;;;;4998821;28;20022;-79
2023/05/12 04:06:13;;;;;;;6.88;4.80;;;15.70;74.80;;;;;;5016564;28;20041;-79
2023/05/12 04:08:39;;;;;;;7.00;5.13;;;15.70;74.80;;;;;;4999034;28;20060;-79
2023/05/12 04:11:06;;;;;;;6.95;5.07;;;15.70;74.80;;;;;;4999065;28;20033;-79
2023/05/12 04:13:32;;;;;;;6.95;5.05;;;15.70;74.80;;;;;;5031288;28;20095;-79
2023/05/12 04:15:58;;;;;;;6.82;5.13;;;15.70;74.80;;;;;;4998609;28;20060;-79
2023/05/12 04:18:25;;;;;;;7.47;5.20;;;15.70;74.80;;;;;;5014698;28;20037;-79
2023/05/12 04:20:52;;;;;;;7.15;5.18;;;15.70;74.80;;;;;;5014749;28;20049;-79
2023/05/12 04:23:18;;;;;;;7.32;5.30;;;15.70;74.80;;;;;;4998719;28;20030;-79
2023/05/12 04:25:45;;;;;;;6.75;5.03;;;15.70;74.90;;;;;;5030920;28;20034;-79
2023/05/12 04:28:11;;;;;;;7.43;5.15;;;15.70;74.90;;;;;;5031006;28;20037;-79
2023/05/12 04:30:41;;;;;;;8.57;5.82;;;15.70;74.90;;;;;;5031014;28;20116;-79
2023/05/12 04:33:08;;;;;;;6.78;4.68;;;15.70;74.90;;;;;;4998292;28;20034;-79
2023/05/12 04:35:34;;;;;;;7.45;5.88;;;15.70;74.80;;;;;;5031064;28;20451;-79
2023/05/12 04:38:01;;;;;;;7.50;5.35;;;15.70;74.90;;;;;;5031371;28;20120;-79
2023/05/12 04:40:27;;;;;;;7.68;5.65;;;15.70;74.80;;;;;;5014349;28;20129;-79
2023/05/12 04:42:53;;;;;;;8.45;6.30;;;15.70;74.80;;;;;;4998015;28;20436;-79
2023/05/12 04:45:19;;;;;;;8.35;5.53;;;15.70;74.90;;;;;;5030943;28;20061;-79
2023/05/12 04:47:45;;;;;;;9.57;6.47;;;15.70;74.90;;;;;;5047287;28;20076;-79
2023/05/12 04:50:12;;;;;;;7.97;5.80;;;15.70;75.00;;;;;;5014651;28;20030;-79
2023/05/12 04:52:37;;;;;;;8.55;6.18;;;15.70;75.00;;;;;;4998458;28;20029;-79
2023/05/12 04:55:04;;;;;;;8.73;6.53;;;15.70;75.00;;;;;;4997779;28;20026;-79
2023/05/12 04:57:30;;;;;;;9.13;6.82;;;15.70;75.00;;;;;;4997724;28;20033;-79
2023/05/12 04:59:58;;;;;;;8.38;6.63;;;15.70;75.00;;;;;;4981837;28;20030;-79
2023/05/12 05:02:25;;;;;;;8.55;6.45;;;15.70;75.00;;;;;;5047249;28;20096;-79
2023/05/12 05:04:51;;;;;;;9.68;7.25;;;15.70;75.00;;;;;;4997319;28;20029;-79
2023/05/12 05:07:18;;;;;;;8.70;6.63;;;15.70;75.00;;;;;;5046396;28;20030;-79
2023/05/12 05:09:44;;;;;;;9.10;7.30;;;15.70;75.10;;;;;;4997560;28;20071;-79
2023/05/12 05:12:10;;;;;;;9.50;7.25;;;15.70;75.10;;;;;;5014122;28;20477;-79
2023/05/12 05:14:35;;;;;;;10.10;7.38;;;15.70;75.10;;;;;;4997468;28;20022;-79
2023/05/12 05:17:01;;;;;;;10.30;7.03;;;15.70;75.10;;;;;;4997381;28;20033;-79
2023/05/12 05:19:28;;;;;;;10.60;8.10;;;15.70;75.10;;;;;;5013626;28;20042;-79
2023/05/12 05:21:54;;;;;;;9.55;7.38;;;15.70;75.20;;;;;;5013608;28;20037;-79
2023/05/12 05:24:20;;;;;;;10.48;7.63;;;15.70;75.20;;;;;;5013863;28;20026;-79
2023/05/12 05:26:46;;;;;;;9.85;7.72;;;15.70;75.20;;;;;;4997329;28;20064;-79
2023/05/12 05:29:11;;;;;;;9.48;7.63;;;15.70;75.20;;;;;;5030084;28;20061;-79
2023/05/12 05:31:37;;;;;;;9.75;7.47;;;15.70;75.20;;;;;;4996993;28;20038;-78
2023/05/12 05:34:03;;;;;;;10.27;7.75;;;15.70;75.20;;;;;;4997085;28;20076;-79
2023/05/12 05:36:29;;;;;;;11.30;8.68;;;15.80;75.30;;;;;;5013079;28;20136;-78
2023/05/12 05:38:55;;;;;;;9.38;8.00;;;15.70;75.20;;;;;;5013343;28;20061;-79
2023/05/12 05:41:22;;;;;;;9.95;7.93;;;15.80;75.30;;;;;;5013256;28;20465;-79
2023/05/12 05:43:48;;;;;;;10.07;7.72;;;15.80;76.00;;;;;;4997102;28;20038;-79
2023/05/12 05:46:14;;;;;;;10.77;8.55;;;15.80;75.30;;;;;;4997509;28;20429;-79
2023/05/12 05:48:40;;;;;;;10.13;8.20;;;15.80;75.30;;;;;;4997067;28;20046;-78
2023/05/12 05:51:10;;;;;;;11.02;8.50;;;15.80;75.30;;;;;;4981561;28;20030;-79
2023/05/12 05:53:37;;;;;;;11.55;8.40;;;15.80;75.30;;;;;;5046526;28;20034;-79
2023/05/12 05:56:02;;;;;;;10.82;8.30;;;15.80;75.30;;;;;;4996980;28;20030;-79
2023/05/12 05:58:29;;;;;;;9.50;7.82;;;15.80;75.30;;;;;;5013613;28;20399;-79
2023/05/12 06:00:56;;;;;;;11.35;8.18;;;15.80;75.30;;;;;;5013144;28;20018;-78
2023/05/12 06:03:22;;;;;;;9.70;7.93;;;15.90;75.40;;;;;;4996810;28;20065;-78
2023/05/12 06:05:48;;;;;;;10.25;8.30;;;15.90;75.40;;;;;;4997156;28;20029;-78
2023/05/12 06:08:14;;;;;;;10.57;8.63;;;15.80;75.40;;;;;;4996365;28;20030;-78
2023/05/12 06:10:40;;;;;;;10.65;8.52;;;15.90;75.40;;;;;;5013233;28;20029;-78
2023/05/12 06:13:06;;;;;;;10.43;8.10;;;15.90;76.00;;;;;;4996263;28;20030;-79
2023/05/12 06:15:32;;;;;;;10.50;8.57;;;15.90;75.30;;;;;;5028988;28;20029;-78
2023/05/12 06:17:58;;;;;;;10.38;8.32;;;15.90;75.40;;;;;;5028986;28;20534;-78
2023/05/12 06:20:24;;;;;;;10.23;8.70;;;15.90;75.40;;;;;;5012427;28;20057;-78
2023/05/12 06:22:50;;;;;;;10.40;8.15;;;15.90;75.40;;;;;;5012619;28;20034;-78
2023/05/12 06:25:16;;;;;;;10.38;8.50;;;16.00;75.50;;;;;;5012454;28;20026;-78
2023/05/12 06:27:42;;;;;;;11.30;8.82;;;16.00;75.40;;;;;;5045545;28;20048;-78
2023/05/12 06:30:08;;;;;;;11.30;9.68;;;16.00;75.40;;;;;;4980466;28;20041;-78
2023/05/12 06:32:35;;;;;;;10.15;8.15;;;16.00;75.50;;;;;;5045450;28;20022;-78
2023/05/12 06:35:00;;;;;;;10.13;7.80;;;16.00;75.40;;;;;;4996230;28;20052;-78
2023/05/12 06:37:26;;;;;;;10.00;8.02;;;16.00;75.40;;;;;;4979962;28;20129;-78
2023/05/12 06:39:52;;;;;;;10.43;8.30;;;16.10;75.50;;;;;;5045311;28;20053;-78
2023/05/12 06:42:18;;;;;;;10.55;8.18;;;16.10;75.40;;;;;;5012456;28;20030;-78
2023/05/12 06:44:50;;;;;;;9.82;8.25;;;16.10;75.40;;;;;;4997645;28;20041;-78
2023/05/12 06:47:18;;;;;;;9.70;7.85;;;16.10;75.60;;;;;;4980912;28;20057;-78
2023/05/12 06:49:45;;;;;;;10.73;8.35;;;16.10;75.40;;;;;;5045297;28;20026;-78
2023/05/12 06:52:15;;;;;;;10.73;9.20;;;16.10;75.40;;;;;;5013098;28;20034;-78
2023/05/12 06:54:42;;;;;;;9.70;8.07;;;16.10;75.40;;;;;;5012344;28;20033;-78
2023/05/12 06:57:08;;;;;;;10.10;8.18;;;16.20;75.40;;;;;;5012660;28;20364;-78
2023/05/12 06:59:34;;;;;;;10.15;8.20;;;16.20;75.40;;;;;;5011981;28;20410;-78
2023/05/12 07:02:00;;;;;;;10.00;8.35;;;16.20;75.40;;;;;;5028901;28;20030;-78
2023/05/12 07:04:26;;;;;;;10.18;8.35;;;16.20;75.40;;;;;;5013127;28;20371;-78
2023/05/12 07:06:51;;;;;;;9.90;8.32;;;16.20;75.40;;;;;;4996074;28;20036;-78
2023/05/12 07:09:17;;;;;;;9.93;8.40;;;16.30;75.40;;;;;;5012532;28;20497;-78
2023/05/12 07:11:43;;;;;;;10.80;9.02;;;16.30;75.40;;;;;;5012360;28;20030;-78
2023/05/12 07:14:09;;;;;;;10.75;8.15;;;16.40;75.40;;;;;;5045379;28;20476;-78
2023/05/12 07:16:35;;;;;;;10.05;8.45;;;16.30;75.30;;;;;;5045003;28;20121;-78
2023/05/12 07:19:00;;;;;;;10.98;7.97;;;16.40;75.40;;;;;;4995751;28;20061;-78
2023/05/12 07:21:27;;;;;;;10.27;8.38;;;16.40;75.30;;;;;;5012431;28;20160;-78
2023/05/12 07:23:53;;;;;;;9.65;7.75;;;16.40;75.30;;;;;;4979871;28;20423;-78
2023/05/12 07:26:19;;;;;;;9.45;7.65;;;16.40;75.20;;;;;;5012147;28;20115;-78
2023/05/12 07:28:45;;;;;;;9.40;7.32;;;16.40;75.20;;;;;;5012126;28;20070;-78
2023/05/12 07:31:11;;;;;;;9.23;7.43;;;16.50;75.30;;;;;;4980456;28;20459;-78
2023/05/12 07:33:37;;;;;;;9.40;7.80;;;16.50;75.30;;;;;;5032327;28;20036;-78
2023/05/12 07:36:03;;;;;;;9.43;7.45;;;16.50;75.20;;;;;;4999246;28;20026;-78
2023/05/12 07:38:29;;;;;;;10.55;8.77;;;16.60;75.30;;;;;;5015418;28;20049;-78
2023/05/12 07:40:56;;;;;;;9.68;7.45;;;16.60;75.30;;;;;;5031901;28;20046;-78
2023/05/12 07:43:22;;;;;;;9.43;7.65;;;16.60;75.30;;;;;;5015248;28;20475;-78
2023/05/12 07:45:47;;;;;;;8.88;6.80;;;16.70;75.20;;;;;;4982778;28;20080;-78
2023/05/12 07:48:13;;;;;;;9.25;7.55;;;16.70;75.20;;;;;;5015136;28;20034;-78
2023/05/12 07:50:39;;;;;;;9.35;7.35;;;16.70;75.10;;;;;;4999171;28;20034;-78
2023/05/12 07:53:05;;;;;;;8.27;6.63;;;16.80;75.10;;;;;;5015461;28;20038;-78
2023/05/12 07:55:34;;;;;;;9.05;7.57;;;16.80;75.10;;;;;;5015326;28;20037;-78
2023/05/12 07:58:01;;;;;;;8.68;6.80;;;16.80;75.00;;;;;;5031624;28;20540;-78
2023/05/12 08:00:27;;;;;;;9.40;7.25;;;16.90;75.00;;;;;;5031518;28;20018;-78
2023/05/12 08:02:53;;;;;;;8.50;7.07;;;16.90;74.90;;;;;;5031779;28;20486;-78
2023/05/12 08:05:19;;;;;;;7.70;6.55;;;16.90;74.80;;;;;;4998700;28;20124;-78
2023/05/12 08:07:45;;;;;;;8.57;7.05;;;17.00;74.80;;;;;;5015731;28;20539;-78
2023/05/12 08:10:14;;;;;;;8.50;6.68;;;17.00;74.70;;;;;;4998648;28;20062;-78
2023/05/12 08:12:41;;;;;;;8.75;6.75;;;17.10;74.70;;;;;;5031484;28;20041;-78
2023/05/12 08:15:07;;;;;;;7.72;6.25;;;17.10;74.60;;;;;;5031211;28;20026;-78
2023/05/12 08:17:33;;;;;;;8.82;6.95;;;17.20;74.60;;;;;;5014388;28;20037;-78
2023/05/12 08:19:59;;;;;;;7.63;6.25;;;17.30;74.50;;;;;;5015611;28;20038;-78
2023/05/12 08:22:25;;;;;;;7.55;6.05;;;17.30;74.40;;;;;;5031216;28;20088;-78
2023/05/12 08:24:53;;;;;;;8.23;6.63;;;17.30;74.30;;;;;;5014900;28;20042;-78
2023/05/12 08:27:19;;;;;;;7.93;6.45;;;17.40;74.30;;;;;;4983081;28;20116;-78
2023/05/12 08:29:45;;;;;;;7.57;5.93;;;17.50;74.20;;;;;;4998128;28;20038;-78
2023/05/12 08:32:11;;;;;;;7.47;6.00;;;17.50;74.10;;;;;;4998200;28;20022;-77
2023/05/12 08:34:37;;;;;;;8.48;6.65;;;17.60;74.10;;;;;;5015309;28;20117;-78
2023/05/12 08:37:05;;;;;;;7.38;5.78;;;17.60;74.00;;;;;;5014364;28;20471;-77
2023/05/12 08:39:32;;;;;;;7.22;5.70;;;17.70;73.90;;;;;;5014577;28;20045;-77
2023/05/12 08:42:19;;;;;;;6.68;5.60;;;17.80;73.80;;;;;;5014368;28;20038;-77
2023/05/12 08:44:46;;;;;;;6.75;5.10;;;17.80;73.80;;;;;;5047453;28;20033;-77
2023/05/12 08:47:13;;;;;;;6.97;5.18;;;17.90;73.60;;;;;;4998513;28;20018;-77
2023/05/12 08:49:41;;;;;;;6.20;5.18;;;17.90;73.60;;;;;;5031596;28;20046;-77
2023/05/12 08:52:08;;;;;;;6.07;4.85;;;18.00;73.60;;;;;;5031183;28;20478;-77
2023/05/12 08:54:36;;;;;;;6.47;5.15;;;18.00;73.50;;;;;;5014602;28;20030;-77
2023/05/12 08:57:03;;;;;;;6.53;5.43;;;18.10;73.40;;;;;;5015154;28;20025;-77
2023/05/12 08:59:30;;;;;;;6.40;5.18;;;18.20;73.40;;;;;;5047164;28;20037;-77
2023/05/12 09:01:58;;;;;;;6.65;5.22;;;18.20;73.30;;;;;;5014233;28;20402;-77
2023/05/12 09:04:23;;;;;;;9.23;5.63;;;18.30;73.20;;;;;;5046776;28;20038;-77
2023/05/12 09:06:50;;;;;;;6.03;4.80;;;18.30;73.10;;;;;;5030715;28;20037;-77
2023/05/12 09:09:16;;;;;;;5.97;4.70;;;18.40;73.10;;;;;;5030455;28;20065;-76
2023/05/12 09:11:43;;;;;;;5.90;4.85;;;18.50;73.10;;;;;;5013501;28;20524;-78
2023/05/12 09:14:14;;;;;;;5.95;4.30;;;18.50;73.00;;;;;;5030150;28;20513;-77
2023/05/12 09:16:47;;;;;;;4.97;3.83;;;18.50;72.90;;;;;;5030156;28;20026;-77
2023/05/12 09:19:20;;;;;;;5.43;4.20;;;18.60;72.80;;;;;;5014792;28;20025;-76
2023/05/12 09:21:47;;;;;;;4.68;3.92;;;18.60;72.80;;;;;;5015423;28;20041;-77
2023/05/12 09:24:13;;;;;;;5.30;3.80;;;18.70;72.70;;;;;;5014564;28;20037;-77
2023/05/12 09:26:51;;;;;;;4.47;3.72;;;18.70;72.60;;;;;;5013804;28;20478;-77
2023/05/12 09:29:17;;;;;;;4.47;3.63;;;18.80;72.60;;;;;;5013505;28;20084;-77
2023/05/12 09:31:54;;;;;;;4.68;3.35;;;18.80;72.50;;;;;;5047092;28;20076;-77
2023/05/12 09:34:27;;;;;;;4.90;3.67;;;18.90;72.50;;;;;;5029765;28;20120;-77
2023/05/12 09:36:58;;;;;;;4.70;3.15;;;18.90;72.40;;;;;;5030049;28;20025;-77
2023/05/12 09:39:24;;;;;;;4.22;3.13;;;19.00;72.40;;;;;;5029403;28;20034;-77
2023/05/12 09:41:52;;;;;;;4.35;3.17;;;19.00;72.30;;;;;;4996803;28;20050;-77
2023/05/12 09:44:18;;;;;;;3.53;2.83;;;19.00;72.20;;;;;;5014073;28;20033;-77
2023/05/12 09:46:44;;;;;;;3.97;2.97;;;19.10;72.20;;;;;;5029559;28;20113;-77
2023/05/12 09:49:10;;;;;;;3.47;2.83;;;19.10;72.10;;;;;;5029539;28;20120;-77
2023/05/12 09:51:36;;;;;;;3.20;2.50;;;19.20;72.10;;;;;;5013169;28;20460;-77
2023/05/12 09:54:03;;;;;;;3.50;2.72;;;19.20;72.00;;;;;;4996526;28;20041;-77
2023/05/12 09:56:31;;;;;;;3.50;2.75;;;19.20;71.90;;;;;;4996904;28;20454;-76
2023/05/12 09:58:57;;;;;;;3.50;2.58;;;19.30;71.90;;;;;;5029357;28;20042;-77
2023/05/12 10:01:24;;;;;;;3.38;2.45;;;19.40;71.90;;;;;;5029571;28;20426;-77
2023/05/12 10:03:55;;;;;;;4.18;2.60;;;19.40;71.80;;;;;;5029415;28;20478;-77
2023/05/12 10:06:32;;;;;;;3.15;2.53;;;19.40;71.70;;;;;;5029366;28;20074;-77
2023/05/12 10:09:17;;;;;;;3.40;2.70;;;19.50;71.80;;;;;;5012768;28;20033;-77
2023/05/12 10:11:45;;;;;;;2.67;2.38;;;19.50;71.70;;;;;;5030008;28;20026;-77
2023/05/12 10:14:12;;;;;;;2.38;2.17;;;19.50;71.60;;;;;;4996459;28;20014;-77
2023/05/12 10:16:40;;;;;;;3.03;2.00;;;19.60;71.50;;;;;;5013012;28;20037;-77
2023/05/12 10:19:06;;;;;;;2.83;2.22;;;19.60;71.50;;;;;;5029143;28;20029;-77
2023/05/12 10:21:32;;;;;;;2.58;2.20;;;19.60;71.50;;;;;;5012959;28;20034;-77
2023/05/12 10:23:58;;;;;;;2.50;1.95;;;19.70;71.50;;;;;;5012483;28;20018;-77
2023/05/12 10:26:24;;;;;;;3.30;2.50;;;19.70;71.40;;;;;;5012453;28;20037;-77
2023/05/12 10:28:51;;;;;;;2.53;1.95;;;19.80;71.40;;;;;;5028883;28;20026;-77
2023/05/12 10:31:18;;;;;;;2.88;2.40;;;19.80;71.30;;;;;;5012471;28;20033;-77
2023/05/12 10:33:55;;;;;;;2.78;2.28;;;19.80;71.30;;;;;;4996518;28;20054;-77
2023/05/12 10:36:21;;;;;;;2.60;2.22;;;19.90;71.30;;;;;;5046320;28;20505;-77
2023/05/12 10:38:51;;;;;;;3.00;2.40;;;19.90;71.20;;;;;;4996046;28;20033;-77
2023/05/12 10:41:27;;;;;;;2.63;2.17;;;19.90;71.20;;;;;;5012232;28;20052;-77
2023/05/12 10:43:53;;;;;;;2.55;2.20;;;19.90;71.10;;;;;;5014643;28;20133;-77
2023/05/12 10:46:21;;;;;;;2.88;2.17;;;20.00;71.10;;;;;;4979862;28;20125;-77
2023/05/12 10:48:58;;;;;;;2.50;2.10;;;20.00;71.10;;;;;;5028594;28;20029;-77
2023/05/12 10:51:27;;;;;;;2.45;2.10;;;20.10;71.10;;;;;;5012311;28;20127;-77
2023/05/12 10:53:56;;;;;;;2.60;2.20;;;20.10;71.00;;;;;;5028813;28;20030;-77
2023/05/12 10:56:41;;;;;;;2.45;2.25;;;20.20;70.90;;;;;;4996476;28;20036;-77
2023/05/12 10:59:17;;;;;;;2.60;2.28;;;20.20;70.80;;;;;;5013816;28;20038;-76
2023/05/12 11:02:04;;;;;;;2.17;1.90;;;20.30;70.80;;;;;;5012110;28;20026;-77
2023/05/12 11:04:54;;;;;;;2.22;2.00;;;20.30;70.80;;;;;;5029386;28;20030;-77
2023/05/12 11:07:25;;;;;;;2.20;2.00;;;20.40;70.70;;;;;;5031353;28;20026;-77
2023/05/12 11:09:51;;;;;;;3.00;2.17;;;20.50;70.70;;;;;;5015997;28;20044;-76
2023/05/12 11:12:18;;;;;;;2.28;2.00;;;20.50;70.60;;;;;;5032519;28;20018;-77
2023/05/12 11:14:45;;;;;;;2.53;1.92;;;20.50;70.60;;;;;;5016088;28;20363;-77
2023/05/12 11:17:11;;;;;;;2.00;1.80;;;20.60;71.20;;;;;;5017530;28;20483;-77
2023/05/12 11:19:38;;;;;;;2.08;1.85;;;20.60;70.50;;;;;;5015917;28;20045;-77
2023/05/12 11:22:12;;;;;;;2.13;1.80;;;20.70;70.40;;;;;;4999451;28;20088;-77
2023/05/12 11:24:39;;;;;;;2.15;1.88;;;20.70;70.40;;;;;;5016280;28;20491;-77
2023/05/12 11:27:10;;;;;;;2.28;1.75;;;20.80;70.30;;;;;;5032200;28;20064;-78
2023/05/12 11:29:38;;;;;;;2.38;1.85;;;20.80;70.20;;;;;;5032391;28;20037;-77
2023/05/12 11:32:04;;;;;;;2.35;2.05;;;20.90;70.20;;;;;;5016316;28;20104;-78
2023/05/12 11:34:30;;;;;;;2.65;2.20;;;20.90;70.20;;;;;;5015598;28;20475;-78
2023/05/12 11:36:56;;;;;;;2.72;2.00;;;21.00;70.20;;;;;;5015312;28;20026;-78
2023/05/12 11:39:24;;;;;;;2.10;1.90;;;21.00;70.00;;;;;;5015760;28;20042;-77
2023/05/12 11:41:50;;;;;;;2.10;1.90;;;21.10;70.00;;;;;;5032135;28;20057;-77
2023/05/12 11:44:24;;;;;;;2.20;1.80;;;21.10;69.90;;;;;;5031893;28;20394;-78
2023/05/12 11:46:56;;;;;;;1.92;1.73;;;21.20;69.90;;;;;;5032190;28;20036;-78
2023/05/12 11:49:22;;;;;;;2.30;1.90;;;21.20;69.80;;;;;;5031853;28;20034;-78
2023/05/12 11:51:51;;;;;;;2.15;1.92;;;21.30;69.80;;;;;;4998721;28;20494;-78
2023/05/12 11:54:17;;;;;;;2.03;1.83;;;21.30;69.70;;;;;;5017040;28;20033;-78
2023/05/12 11:56:54;;;;;;;2.22;1.90;;;21.40;69.70;;;;;;5015495;28;20030;-77
2023/05/12 11:59:32;;;;;;;1.75;1.65;;;21.50;69.70;;;;;;5016063;28;20038;-78
2023/05/12 12:02:00;;;;;;;1.80;1.70;;;21.50;69.60;;;;;;4998826;28;20041;-78
2023/05/12 12:04:39;;;;;;;2.13;1.92;;;21.60;69.60;;;;;;5031987;28;20018;-78
2023/05/12 12:07:05;;;;;;;1.90;1.73;;;21.70;69.60;;;;;;5031917;28;20101;-77
2023/05/12 12:09:36;;;;;;;1.85;1.67;;;21.70;69.50;;;;;;5017519;28;20439;-78
2023/05/12 12:12:04;;;;;;;2.10;1.90;;;21.70;69.40;;;;;;5015909;28;20037;-78
2023/05/12 12:14:31;;;;;;;2.35;2.00;;;21.80;69.50;;;;;;5016076;28;20091;-77
2023/05/12 12:16:58;;;;;;;1.70;1.60;;;21.80;69.40;;;;;;5031927;28;20030;-78
2023/05/12 12:19:24;;;;;;;1.88;1.70;;;21.80;69.30;;;;;;4999193;28;20037;-78
2023/05/12 12:21:50;;;;;;;2.17;1.95;;;21.90;69.30;;;;;;5014723;28;20040;-78
2023/05/12 12:24:16;;;;;;;1.90;1.67;;;21.90;69.20;;;;;;5047809;28;20394;-78
2023/05/12 12:26:42;;;;;;;2.20;2.00;;;22.00;69.20;;;;;;4999168;28;20026;-78
2023/05/12 12:29:08;;;;;;;2.70;2.20;;;22.00;69.10;;;;;;5031173;28;20034;-78
2023/05/12 12:31:35;;;;;;;2.80;2.20;;;22.10;69.10;;;;;;5047860;28;20121;-78
2023/05/12 12:34:02;;;;;;;2.00;1.80;;;22.10;69.00;;;;;;4998257;28;20036;-78
2023/05/12 12:36:28;;;;;;;2.15;1.88;;;22.20;69.00;;;;;;4998423;28;20470;-78
2023/05/12 12:38:54;;;;;;;3.10;2.10;;;22.20;68.90;;;;;;4998091;28;20095;-78
2023/05/12 12:41:20;;;;;;;2.22;1.90;;;22.30;68.90;;;;;;5014519;28;20084;-78
2023/05/12 12:43:46;;;;;;;2.60;2.10;;;22.30;68.80;;;;;;4998122;28;20038;-78
2023/05/12 12:46:12;;;;;;;2.20;1.92;;;22.30;68.80;;;;;;5014500;28;20052;-78